createdAt,value
2023-03-02T00:01:48.463Z,10.65
2023-03-02T00:04:20.944Z,10.32
2023-03-02T00:06:49.078Z,11.27
2023-03-02T00:09:16.382Z,11.00
2023-03-02T00:11:43.067Z,11.18
2023-03-02T00:14:09.571Z,10.45
2023-03-02T00:16:36.114Z,9.40
2023-03-02T00:19:05.982Z,10.05
2023-03-02T00:21:32.637Z,9.70
2023-03-02T00:24:02.419Z,9.73
2023-03-02T00:26:40.525Z,9.45
2023-03-02T00:29:07.037Z,10.60
2023-03-02T00:31:38.089Z,9.68
2023-03-02T00:34:06.679Z,9.75
2023-03-02T00:36:33.168Z,9.82
2023-03-02T00:38:59.738Z,10.68
2023-03-02T00:41:26.201Z,10.82
2023-03-02T00:43:52.899Z,9.68
2023-03-02T00:46:22.231Z,10.10
2023-03-02T00:48:49.607Z,9.63
2023-03-02T00:51:19.370Z,11.25
2023-03-02T00:53:46.349Z,10.82
2023-03-02T00:56:13.407Z,11.43
2023-03-02T00:58:41.433Z,11.48
2023-03-02T01:01:11.491Z,10.73
2023-03-02T01:03:38.388Z,11.40
2023-03-02T01:06:06.395Z,11.45
2023-03-02T01:08:38.411Z,11.27
2023-03-02T01:11:20.769Z,10.55
2023-03-02T01:13:47.737Z,10.98
2023-03-02T01:16:15.187Z,11.55
2023-03-02T01:18:41.714Z,10.70
2023-03-02T01:21:11.575Z,11.15
2023-03-02T01:23:38.023Z,11.57
2023-03-02T01:26:04.656Z,11.63
2023-03-02T01:28:33.896Z,11.60
2023-03-02T01:31:04.329Z,11.90
2023-03-02T01:33:31.511Z,11.80
2023-03-02T01:35:58.135Z,11.25
2023-03-02T01:38:24.707Z,12.07
2023-03-02T01:40:51.280Z,11.50
2023-03-02T01:43:18.621Z,12.65
2023-03-02T01:45:53.140Z,12.20
2023-03-02T01:48:48.268Z,12.35
2023-03-02T01:51:18.880Z,12.57
2023-03-02T01:53:49.227Z,12.32
2023-03-02T01:56:18.719Z,11.88
2023-03-02T01:58:48.367Z,11.45
2023-03-02T02:01:17.672Z,12.68
2023-03-02T02:03:47.135Z,12.05
2023-03-02T02:06:21.620Z,12.55
2023-03-02T02:08:49.437Z,12.52
2023-03-02T02:11:15.960Z,11.55
2023-03-02T02:13:43.322Z,11.60
2023-03-02T02:16:09.944Z,11.90
2023-03-02T02:18:39.745Z,11.52
2023-03-02T02:21:07.791Z,12.57
2023-03-02T02:23:49.690Z,10.85
2023-03-02T02:26:21.044Z,10.48
2023-03-02T02:28:57.791Z,11.25
2023-03-02T02:31:40.400Z,10.57
2023-03-02T02:34:11.392Z,10.93
2023-03-02T02:36:42.414Z,11.30
2023-03-02T02:39:18.024Z,10.97
2023-03-02T02:41:47.575Z,10.23
2023-03-02T02:44:17.340Z,9.93
2023-03-02T02:46:50.304Z,10.45
2023-03-02T02:49:35.995Z,10.77
2023-03-02T02:52:04.344Z,11.13
2023-03-02T02:54:33.064Z,10.80
2023-03-02T02:57:02.586Z,10.30
2023-03-02T02:59:33.313Z,10.88
2023-03-02T03:02:00.161Z,11.05
2023-03-02T03:04:30.399Z,11.50
2023-03-02T03:06:59.627Z,10.93
2023-03-02T03:09:27.403Z,10.85
2023-03-02T03:12:19.168Z,11.60
2023-03-02T03:14:46.434Z,10.98
2023-03-02T03:17:13.764Z,10.88
2023-03-02T03:19:45.597Z,11.38
2023-03-02T03:22:15.070Z,11.25
2023-03-02T03:24:43.427Z,11.23
2023-03-02T03:27:12.540Z,11.45
2023-03-02T03:29:41.219Z,10.55
2023-03-02T03:32:07.871Z,11.77
2023-03-02T03:34:40.871Z,11.30
2023-03-02T03:37:10.108Z,11.52
2023-03-02T03:39:36.666Z,10.48
2023-03-02T03:42:03.808Z,12.02
2023-03-02T03:44:30.402Z,11.70
2023-03-02T03:46:57.018Z,12.48
2023-03-02T03:49:23.817Z,11.40
2023-03-02T03:51:50.276Z,11.77
2023-03-02T03:54:16.942Z,11.80
2023-03-02T03:56:47.579Z,12.00
2023-03-02T03:59:17.865Z,11.20
2023-03-02T04:01:53.608Z,12.02
2023-03-02T04:04:29.449Z,11.35
2023-03-02T04:06:56.268Z,12.23
2023-03-02T04:09:23.299Z,11.10
2023-03-02T04:11:53.423Z,11.05
2023-03-02T04:14:21.546Z,11.48
2023-03-02T04:16:48.128Z,11.68
2023-03-02T04:19:15.179Z,10.90
2023-03-02T04:21:48.424Z,11.70
2023-03-02T04:24:15.858Z,11.70
2023-03-02T04:26:43.849Z,11.25
2023-03-02T04:29:12.083Z,11.18
2023-03-02T04:31:38.866Z,10.65
2023-03-02T04:34:05.594Z,11.65
2023-03-02T04:36:34.627Z,11.70
2023-03-02T04:39:01.553Z,10.88
2023-03-02T04:41:28.078Z,11.07
2023-03-02T04:43:54.606Z,11.90
2023-03-02T04:46:24.661Z,11.13
2023-03-02T04:48:51.984Z,12.02
2023-03-02T04:51:25.421Z,11.20
2023-03-02T04:53:53.622Z,12.30
2023-03-02T04:56:21.171Z,12.18
2023-03-02T04:58:48.381Z,11.18
2023-03-02T05:01:16.891Z,11.32
2023-03-02T05:03:43.397Z,11.68
2023-03-02T05:06:10.600Z,11.77
2023-03-02T05:08:37.916Z,12.07
2023-03-02T05:11:06.344Z,12.10
2023-03-02T05:13:32.802Z,11.68
2023-03-02T05:15:59.367Z,12.68
2023-03-02T05:18:31.991Z,13.23
2023-03-02T05:20:58.501Z,12.20
2023-03-02T05:23:31.541Z,12.18
2023-03-02T05:25:58.044Z,13.10
2023-03-02T05:28:25.874Z,11.90
2023-03-02T05:30:53.334Z,12.43
2023-03-02T05:33:20.547Z,12.52
2023-03-02T05:35:47.869Z,12.32
2023-03-02T05:38:14.865Z,12.93
2023-03-02T05:40:45.167Z,12.15
2023-03-02T05:43:16.340Z,12.75
2023-03-02T05:45:43.133Z,12.95
2023-03-02T05:48:12.080Z,12.10
2023-03-02T05:50:38.597Z,12.93
2023-03-02T05:53:05.281Z,11.85
2023-03-02T05:55:36.792Z,13.23
2023-03-02T05:58:06.369Z,12.50
2023-03-02T06:00:32.930Z,12.40
2023-03-02T06:02:59.495Z,12.80
2023-03-02T06:05:26.055Z,12.43
2023-03-02T06:07:52.576Z,13.02
2023-03-02T06:10:19.165Z,12.70
2023-03-02T06:12:45.731Z,12.02
2023-03-02T06:15:12.278Z,12.18
2023-03-02T06:17:38.828Z,11.35
2023-03-02T06:20:10.271Z,11.98
2023-03-02T06:22:48.164Z,12.40
2023-03-02T06:25:18.826Z,12.57
2023-03-02T06:27:46.133Z,12.82
2023-03-02T06:30:17.307Z,12.30
2023-03-02T06:32:44.455Z,13.25
2023-03-02T06:35:12.400Z,12.70
2023-03-02T06:37:39.140Z,12.65
2023-03-02T06:40:10.241Z,12.65
2023-03-02T06:42:38.221Z,13.48
2023-03-02T06:45:06.120Z,13.63
2023-03-02T06:47:33.394Z,13.00
2023-03-02T06:50:00.290Z,13.32
2023-03-02T06:52:27.597Z,12.80
2023-03-02T06:54:54.911Z,13.30
2023-03-02T06:57:21.430Z,13.50
2023-03-02T06:59:47.883Z,13.75
2023-03-02T07:02:14.458Z,13.75
2023-03-02T07:04:41.004Z,14.13
2023-03-02T07:07:07.521Z,14.52
2023-03-02T07:09:34.460Z,14.52
2023-03-02T07:12:00.999Z,13.88
2023-03-02T07:14:27.577Z,12.95
2023-03-02T07:16:56.667Z,13.57
2023-03-02T07:19:23.375Z,13.23
2023-03-02T07:21:49.823Z,13.05
2023-03-02T07:24:16.348Z,13.23
2023-03-02T07:26:42.857Z,14.63
2023-03-02T07:29:09.374Z,13.32
2023-03-02T07:31:35.857Z,13.93
2023-03-02T07:34:05.415Z,12.93
2023-03-02T07:36:31.950Z,13.68
2023-03-02T07:38:58.404Z,13.55
2023-03-02T07:41:24.914Z,13.38
2023-03-02T07:43:51.366Z,12.85
2023-03-02T07:46:17.921Z,14.23
2023-03-02T07:48:44.411Z,14.25
2023-03-02T07:51:10.875Z,14.75
2023-03-02T07:53:38.599Z,14.45
2023-03-02T07:56:10.599Z,15.48
2023-03-02T07:58:37.857Z,15.35
2023-03-02T08:01:04.905Z,14.68
2023-03-02T08:03:31.407Z,15.30
2023-03-02T08:05:57.973Z,15.05
2023-03-02T08:08:24.518Z,14.75
2023-03-02T08:10:50.964Z,15.40
2023-03-02T08:13:17.527Z,14.82
2023-03-02T08:15:44.112Z,15.07
2023-03-02T08:18:10.567Z,15.65
2023-03-02T08:20:40.109Z,15.60
2023-03-02T08:23:07.243Z,16.08
2023-03-02T08:25:33.934Z,15.07
2023-03-02T08:28:00.384Z,15.25
2023-03-02T08:30:26.974Z,15.38
2023-03-02T08:32:53.472Z,14.75
2023-03-02T08:35:22.088Z,15.38
2023-03-02T08:37:48.750Z,16.02
2023-03-02T08:40:15.341Z,14.90
2023-03-02T08:42:43.009Z,14.05
2023-03-02T08:45:09.927Z,14.65
2023-03-02T08:47:36.426Z,15.27
2023-03-02T08:50:03.023Z,14.82
2023-03-02T08:52:29.480Z,14.60
2023-03-02T08:54:56.063Z,14.95
2023-03-02T08:57:22.552Z,13.63
2023-03-02T08:59:49.123Z,15.38
2023-03-02T09:02:18.528Z,14.88
2023-03-02T09:04:45.051Z,14.10
2023-03-02T09:07:11.589Z,14.23
2023-03-02T09:09:38.081Z,14.52
2023-03-02T09:12:04.581Z,16.63
2023-03-02T09:14:31.057Z,15.48
2023-03-02T09:16:57.602Z,14.38
2023-03-02T09:19:27.050Z,14.40
2023-03-02T09:21:53.527Z,15.18
2023-03-02T09:24:20.073Z,14.48
2023-03-02T09:26:46.680Z,15.80
2023-03-02T09:29:13.408Z,14.75
2023-03-02T09:31:39.924Z,14.88
2023-03-02T09:34:07.275Z,13.73
2023-03-02T09:36:34.541Z,15.68
2023-03-02T09:39:01.291Z,16.42
2023-03-02T09:42:15.539Z,16.70
2023-03-02T09:45:03.237Z,15.25
2023-03-02T09:47:41.665Z,15.02
2023-03-02T09:50:25.327Z,15.80
2023-03-02T09:53:22.528Z,16.50
2023-03-02T09:55:54.773Z,17.67
2023-03-02T09:58:25.596Z,16.48
2023-03-02T10:00:52.272Z,17.73
2023-03-02T10:03:27.208Z,18.35
2023-03-02T10:05:55.471Z,17.30
2023-03-02T10:08:28.246Z,20.42
2023-03-02T10:11:13.144Z,17.67
2023-03-02T10:13:52.359Z,19.50
2023-03-02T10:16:35.019Z,17.48
2023-03-02T10:19:42.227Z,17.60
2023-03-02T10:22:14.446Z,20.55
2023-03-02T10:24:55.953Z,21.58
2023-03-02T10:27:48.205Z,19.60
2023-03-02T10:30:25.541Z,20.52
2023-03-02T10:32:52.816Z,17.77
2023-03-02T10:35:23.170Z,19.63
2023-03-02T10:38:00.253Z,21.05
2023-03-02T10:40:42.048Z,21.30
2023-03-02T10:43:41.471Z,17.23
2023-03-02T10:46:11.582Z,20.88
2023-03-02T10:48:52.377Z,17.52
2023-03-02T10:51:23.378Z,17.92
2023-03-02T10:53:49.862Z,16.37
2023-03-02T10:56:21.554Z,19.83
2023-03-02T10:58:48.292Z,18.55
2023-03-02T11:01:19.112Z,20.05
2023-03-02T11:03:56.638Z,17.85
2023-03-02T11:06:24.123Z,18.02
2023-03-02T11:09:05.993Z,17.58
2023-03-02T11:11:33.330Z,18.20
2023-03-02T11:14:15.895Z,22.08
2023-03-02T11:16:42.892Z,22.70
2023-03-02T11:19:38.209Z,21.15
2023-03-02T11:22:30.037Z,20.17
2023-03-02T11:24:59.255Z,17.90
2023-03-02T11:27:29.746Z,13.70
2023-03-02T11:30:01.060Z,15.57
2023-03-02T11:32:30.905Z,13.63
2023-03-02T11:35:02.780Z,19.95
2023-03-02T11:37:45.249Z,21.38
2023-03-02T11:40:33.204Z,20.92
2023-03-02T11:43:01.015Z,22.67
2023-03-02T11:45:38.164Z,22.15
2023-03-02T11:48:36.881Z,20.60
2023-03-02T11:51:06.696Z,20.80
2023-03-02T11:53:39.390Z,21.48
2023-03-02T11:56:06.163Z,19.98
2023-03-02T11:58:33.574Z,16.45
2023-03-02T12:01:02.035Z,14.15
2023-03-02T12:03:31.428Z,18.63
2023-03-02T12:06:18.643Z,19.65
2023-03-02T12:08:48.395Z,16.33
2023-03-02T12:11:17.941Z,18.60
2023-03-02T12:13:50.332Z,20.15
2023-03-02T12:16:24.329Z,20.33
2023-03-02T12:18:52.987Z,18.48
2023-03-02T12:21:21.296Z,19.75
2023-03-02T12:23:50.849Z,17.20
2023-03-02T12:26:20.103Z,16.70
2023-03-02T12:28:59.108Z,18.10
2023-03-02T12:31:47.475Z,18.48
2023-03-02T12:34:35.381Z,18.35
2023-03-02T12:37:08.549Z,17.27
2023-03-02T12:39:44.940Z,18.48
2023-03-02T12:42:49.912Z,18.48
2023-03-02T12:45:25.061Z,17.35
2023-03-02T12:48:01.348Z,18.90
2023-03-02T12:50:33.574Z,18.55
2023-03-02T12:53:05.789Z,16.65
2023-03-02T12:55:34.353Z,19.73
2023-03-02T12:58:02.166Z,15.80
2023-03-02T13:00:32.212Z,12.45
2023-03-02T13:03:02.017Z,16.67
2023-03-02T13:05:35.103Z,18.13
2023-03-02T13:08:05.942Z,16.60
2023-03-02T13:10:40.428Z,19.60
2023-03-02T13:13:17.597Z,15.38
2023-03-02T13:15:52.239Z,20.80
2023-03-02T13:18:21.059Z,17.98
2023-03-02T13:20:49.123Z,20.63
2023-03-02T13:23:17.444Z,20.25
2023-03-02T13:25:52.961Z,21.15
2023-03-02T13:28:28.225Z,18.35
2023-03-02T13:31:05.892Z,17.50
2023-03-02T13:33:35.553Z,18.42
2023-03-02T13:36:02.343Z,15.82
2023-03-02T13:38:38.548Z,19.52
2023-03-02T13:41:05.499Z,18.10
2023-03-02T13:43:42.835Z,20.25
2023-03-02T13:46:12.009Z,20.42
2023-03-02T13:48:38.489Z,21.38
2023-03-02T13:51:19.002Z,18.80
2023-03-02T13:54:04.578Z,19.33
2023-03-02T13:56:40.420Z,20.17
2023-03-02T13:59:15.058Z,21.80
2023-03-02T14:01:42.127Z,22.27
2023-03-02T14:04:11.888Z,19.88
2023-03-02T14:06:38.447Z,24.13
2023-03-02T14:09:05.625Z,21.75
2023-03-02T14:11:37.178Z,22.58
2023-03-02T14:14:06.304Z,23.85
2023-03-02T14:16:36.010Z,15.63
2023-03-02T14:19:03.561Z,19.25
2023-03-02T14:21:30.313Z,16.25
2023-03-02T14:23:58.838Z,11.30
2023-03-02T14:26:37.025Z,22.33
2023-03-02T14:29:22.452Z,21.85
2023-03-02T14:31:49.216Z,25.08
2023-03-02T14:34:16.779Z,20.23
2023-03-02T14:36:50.003Z,18.08
2023-03-02T14:39:37.704Z,16.10
2023-03-02T14:42:05.682Z,22.92
2023-03-02T14:44:32.895Z,22.85
2023-03-02T14:46:59.464Z,22.70
2023-03-02T14:49:25.963Z,24.25
2023-03-02T14:52:03.513Z,19.35
2023-03-02T14:54:42.576Z,17.92
2023-03-02T14:57:29.136Z,21.27
2023-03-02T14:59:59.905Z,26.23
2023-03-02T15:02:27.367Z,21.65
2023-03-02T15:04:56.811Z,26.90
2023-03-02T15:07:26.173Z,28.65
2023-03-02T15:09:52.745Z,27.83
2023-03-02T15:12:19.199Z,25.67
2023-03-02T15:14:45.668Z,20.52
2023-03-02T15:17:12.121Z,23.10
2023-03-02T15:19:38.614Z,21.77
2023-03-02T15:22:05.108Z,24.85
2023-03-02T15:24:33.396Z,24.35
2023-03-02T15:27:00.558Z,24.10
2023-03-02T15:29:28.764Z,27.38
2023-03-02T15:31:55.399Z,18.42
2023-03-02T15:34:22.042Z,28.60
2023-03-02T15:36:48.652Z,14.70
2023-03-02T15:39:16.424Z,25.23
2023-03-02T15:41:42.990Z,27.75
2023-03-02T15:44:22.239Z,25.23
2023-03-02T15:46:57.074Z,27.10
2023-03-02T15:49:27.265Z,28.02
2023-03-02T15:51:57.919Z,29.73
2023-03-02T15:54:26.179Z,26.00
2023-03-02T15:56:54.695Z,27.27
2023-03-02T15:59:26.369Z,28.52
2023-03-02T16:01:53.488Z,26.35
2023-03-02T16:04:20.011Z,26.60
2023-03-02T16:06:46.485Z,26.48
2023-03-02T16:09:12.984Z,26.10
2023-03-02T16:11:39.551Z,22.08
2023-03-02T16:14:06.050Z,25.15
2023-03-02T16:16:32.966Z,24.88
2023-03-02T16:18:59.574Z,25.65
2023-03-02T16:21:28.530Z,26.38
2023-03-02T16:24:04.563Z,26.17
2023-03-02T16:26:33.322Z,26.27
2023-03-02T16:29:04.361Z,23.98
2023-03-02T16:31:34.458Z,24.73
2023-03-02T16:34:06.931Z,24.85
2023-03-02T16:36:35.256Z,27.30
2023-03-02T16:39:01.904Z,28.17
2023-03-02T16:41:31.368Z,27.80
2023-03-02T16:43:59.018Z,28.10
2023-03-02T16:46:28.256Z,30.77
2023-03-02T16:48:55.620Z,29.05
2023-03-02T16:51:22.151Z,27.02
2023-03-02T16:53:49.197Z,29.67
2023-03-02T16:56:15.755Z,29.98
2023-03-02T16:58:42.551Z,29.10
2023-03-02T17:01:13.767Z,28.02
2023-03-02T17:03:40.779Z,28.15
2023-03-02T17:06:08.990Z,28.90
2023-03-02T17:08:35.835Z,30.50
2023-03-02T17:11:02.561Z,31.95
2023-03-02T17:13:29.064Z,30.67
2023-03-02T17:15:55.672Z,30.27
2023-03-02T17:18:22.564Z,26.52
2023-03-02T17:20:52.844Z,31.25
2023-03-02T17:23:19.456Z,31.88
2023-03-02T17:25:46.245Z,32.22
2023-03-02T17:28:14.876Z,37.78
2023-03-02T17:30:42.508Z,35.33
2023-03-02T17:33:09.338Z,38.65
2023-03-02T17:35:36.405Z,39.33
2023-03-02T17:38:03.335Z,33.55
2023-03-02T17:40:29.987Z,38.70
2023-03-02T17:42:57.845Z,40.85
2023-03-02T17:45:27.363Z,44.33
2023-03-02T17:47:55.341Z,39.70
2023-03-02T17:50:22.152Z,35.97
2023-03-02T17:52:48.805Z,35.95
2023-03-02T17:55:15.755Z,34.33
2023-03-02T17:57:42.285Z,45.30
2023-03-02T18:00:13.988Z,37.10
2023-03-02T18:02:40.505Z,36.35
2023-03-02T18:05:09.932Z,34.63
2023-03-02T18:07:37.431Z,37.17
2023-03-02T18:10:04.832Z,38.70
2023-03-02T18:12:31.368Z,36.55
2023-03-02T18:14:57.891Z,37.80
2023-03-02T18:17:24.359Z,37.22
2023-03-02T18:19:50.859Z,42.20
2023-03-02T18:22:17.378Z,44.33
2023-03-02T18:24:43.883Z,42.78
2023-03-02T18:27:10.432Z,49.95
2023-03-02T18:29:36.932Z,44.05
2023-03-02T18:32:03.728Z,49.85
2023-03-02T18:34:30.397Z,38.60
2023-03-02T18:36:56.883Z,47.65
2023-03-02T18:39:23.403Z,50.67
2023-03-02T18:41:49.932Z,38.25
2023-03-02T18:44:16.419Z,46.63
2023-03-02T18:46:43.050Z,35.55
2023-03-02T18:49:09.546Z,33.60
2023-03-02T18:51:36.065Z,32.38
2023-03-02T18:54:02.536Z,31.27
2023-03-02T18:56:29.070Z,29.92
2023-03-02T18:58:55.536Z,30.45
2023-03-02T19:01:25.277Z,30.95
2023-03-02T19:03:53.188Z,27.60
2023-03-02T19:06:20.588Z,29.25
2023-03-02T19:08:48.180Z,27.55
2023-03-02T19:11:14.779Z,26.77
2023-03-02T19:13:41.300Z,26.70
2023-03-02T19:16:08.033Z,27.38
2023-03-02T19:18:37.969Z,32.10
2023-03-02T19:21:05.256Z,31.65
2023-03-02T19:23:32.848Z,29.60
2023-03-02T19:25:59.967Z,28.55
2023-03-02T19:28:27.483Z,24.42
2023-03-02T19:30:54.000Z,27.40
2023-03-02T19:33:20.578Z,33.65
2023-03-02T19:35:47.092Z,26.10
2023-03-02T19:38:13.687Z,34.50
2023-03-02T19:40:40.563Z,31.83
2023-03-02T19:43:07.121Z,33.13
2023-03-02T19:45:34.915Z,33.83
2023-03-02T19:48:03.320Z,33.03
2023-03-02T19:50:30.372Z,38.72
2023-03-02T19:52:58.026Z,33.25
2023-03-02T19:55:26.107Z,32.95
2023-03-02T19:57:59.533Z,34.00
2023-03-02T20:00:28.442Z,34.30
2023-03-02T20:02:55.504Z,32.55
2023-03-02T20:05:22.032Z,33.30
2023-03-02T20:07:49.242Z,40.03
2023-03-02T20:10:31.202Z,37.83
2023-03-02T20:12:59.572Z,36.47
2023-03-02T20:15:28.253Z,35.55
2023-03-02T20:17:59.356Z,35.90
2023-03-02T20:20:26.941Z,35.90
2023-03-02T20:22:53.765Z,35.10
2023-03-02T20:25:23.587Z,35.78
2023-03-02T20:27:53.780Z,32.80
2023-03-02T20:30:32.038Z,40.08
2023-03-02T20:32:59.520Z,41.83
2023-03-02T20:35:29.567Z,34.28
2023-03-02T20:37:57.838Z,39.08
2023-03-02T20:40:26.217Z,31.95
2023-03-02T20:42:53.161Z,35.55
2023-03-02T20:45:20.385Z,33.95
2023-03-02T20:47:47.837Z,36.08
2023-03-02T20:50:21.330Z,34.45
2023-03-02T20:52:47.943Z,39.70
2023-03-02T20:55:15.053Z,30.77
2023-03-02T20:57:41.563Z,42.17
2023-03-02T21:00:13.675Z,29.88
2023-03-02T21:02:40.335Z,32.17
2023-03-02T21:05:07.201Z,34.75
2023-03-02T21:07:35.746Z,31.20
2023-03-02T21:10:10.761Z,33.55
2023-03-02T21:12:37.552Z,31.38
2023-03-02T21:15:05.143Z,31.58
2023-03-02T21:17:31.862Z,32.97
2023-03-02T21:19:58.453Z,31.25
2023-03-02T21:22:25.128Z,27.75
2023-03-02T21:24:53.030Z,35.90
2023-03-02T21:27:19.912Z,30.58
2023-03-02T21:29:46.406Z,31.98
2023-03-02T21:32:12.975Z,26.70
2023-03-02T21:34:39.485Z,29.08
2023-03-02T21:37:06.056Z,23.80
2023-03-02T21:39:32.676Z,24.70
2023-03-02T21:41:59.245Z,22.38
2023-03-02T21:44:25.825Z,21.92
2023-03-02T21:46:52.283Z,20.40
2023-03-02T21:49:21.149Z,21.15
2023-03-02T21:51:49.863Z,21.05
2023-03-02T21:54:16.510Z,20.00
2023-03-02T21:56:43.574Z,20.70
2023-03-02T21:59:11.140Z,24.80
2023-03-02T22:01:37.634Z,24.45
2023-03-02T22:04:04.414Z,22.67
2023-03-02T22:06:33.061Z,21.08
2023-03-02T22:09:01.353Z,23.27
2023-03-02T22:11:34.865Z,22.05
2023-03-02T22:14:10.060Z,20.80
2023-03-02T22:16:39.719Z,21.90
2023-03-02T22:19:30.292Z,21.50
2023-03-02T22:22:00.181Z,23.85
2023-03-02T22:24:29.017Z,25.75
2023-03-02T22:27:04.522Z,23.75
2023-03-02T22:29:49.991Z,23.35
2023-03-02T22:32:31.089Z,22.98
2023-03-02T22:35:08.458Z,20.67
2023-03-02T22:37:35.058Z,21.65
2023-03-02T22:40:07.505Z,21.23
2023-03-02T22:42:34.064Z,21.90
2023-03-02T22:45:15.975Z,21.75
2023-03-02T22:47:44.120Z,21.25
2023-03-02T22:50:37.806Z,21.83
2023-03-02T22:53:19.745Z,22.95
2023-03-02T22:55:47.781Z,22.45
2023-03-02T22:58:20.002Z,23.38
2023-03-02T23:00:47.928Z,28.30
2023-03-02T23:03:18.698Z,20.25
2023-03-02T23:05:49.086Z,17.83
2023-03-02T23:08:27.000Z,19.90
2023-03-02T23:10:57.807Z,15.07
2023-03-02T23:13:31.166Z,15.85
2023-03-02T23:15:57.728Z,19.58
2023-03-02T23:18:29.735Z,19.48
2023-03-02T23:20:56.212Z,18.52
2023-03-02T23:23:24.582Z,19.15
2023-03-02T23:25:51.095Z,17.52
2023-03-02T23:28:17.632Z,16.65
2023-03-02T23:30:45.308Z,16.80
2023-03-02T23:33:11.866Z,17.17
2023-03-02T23:35:38.450Z,15.63
2023-03-02T23:38:04.986Z,14.10
2023-03-02T23:40:31.544Z,15.85
2023-03-02T23:42:58.139Z,16.45
2023-03-02T23:45:24.730Z,16.08
2023-03-02T23:47:51.259Z,17.02
2023-03-02T23:50:17.803Z,19.15
2023-03-02T23:52:44.259Z,18.60
2023-03-02T23:55:11.327Z,18.65
2023-03-02T23:57:37.813Z,16.30
